Time;durP1;ratioP1;P1;durP2;ratioP2;P2;SDS_P1;SDS_P2;PMS_P1;PMS_P2;Temp;Humidity;BMP_temperature;BMP_pressure;BME280_temperature;BME280_humidity;BME280_pressure;Samples;Min_cycle;Max_cycle;Signal;HPM_P1;HPM_P2
2023/05/23 00:01:17;;;;;;;25.73;24.13;;;18.30;1.00;;;;;;4943409;29;20464;-83
2023/05/23 00:03:46;;;;;;;28.20;26.40;;;18.20;1.00;;;;;;4937359;29;21016;-84
2023/05/23 00:06:14;;;;;;;31.40;28.37;;;18.30;99.90;;;;;;4943563;28;20475;-82
2023/05/23 00:08:44;;;;;;;30.43;28.13;;;18.40;99.90;;;;;;4944336;29;20511;-81
2023/05/23 00:11:12;;;;;;;30.43;28.30;;;18.50;99.90;;;;;;4944408;29;20480;-80
2023/05/23 00:13:41;;;;;;;31.10;28.67;;;18.50;99.90;;;;;;4945896;28;20460;-81
2023/05/23 00:16:09;;;;;;;32.47;29.93;;;18.50;1.00;;;;;;4941838;28;20436;-81
2023/05/23 00:18:39;;;;;;;32.90;30.40;;;18.60;1.00;;;;;;4946362;29;20483;-84
2023/05/23 00:21:08;;;;;;;35.13;32.13;;;18.50;99.90;;;;;;4945987;29;20460;-82
2023/05/23 00:23:37;;;;;;;34.27;31.30;;;18.60;99.90;;;;;;4946168;29;20828;-80
2023/05/23 00:26:06;;;;;;;35.80;32.57;;;18.60;1.00;;;;;;4943604;29;20448;-82
2023/05/23 00:28:34;;;;;;;37.50;34.13;;;18.60;99.90;;;;;;4942013;29;20490;-82
2023/05/23 00:31:03;;;;;;;39.03;35.67;;;18.60;39.30;;;;;;4944864;29;20499;-80
2023/05/23 00:33:32;;;;;;;37.13;34.10;;;18.70;88.60;;;;;;4946676;29;20900;-80
2023/05/23 00:36:00;;;;;;;40.23;36.40;;;18.70;99.90;;;;;;4945022;29;20460;-84
2023/05/23 00:38:28;;;;;;;40.37;36.63;;;18.70;1.00;;;;;;4940744;29;22162;-83
2023/05/23 00:40:56;;;;;;;40.67;36.93;;;18.70;1.00;;;;;;4940285;29;20445;-84
2023/05/23 00:43:26;;;;;;;41.87;37.90;;;18.70;99.90;;;;;;4942184;29;20463;-83
2023/05/23 00:45:55;;;;;;;43.20;38.80;;;18.70;99.90;;;;;;4942457;29;20456;-84
2023/05/23 00:48:23;;;;;;;44.80;40.13;;;18.70;1.00;;;;;;4942769;29;20488;-84
2023/05/23 00:50:52;;;;;;;45.53;41.03;;;18.60;1.00;;;;;;4938828;29;20483;-83
2023/05/23 00:53:20;;;;;;;41.27;37.37;;;18.60;37.60;;;;;;4938202;29;22568;-84
2023/05/23 00:55:49;;;;;;;46.23;41.47;;;18.60;99.90;;;;;;4940766;29;20463;-84
2023/05/23 00:58:17;;;;;;;45.03;40.60;;;18.70;99.90;;;;;;4941846;29;20480;-84
2023/05/23 01:00:49;;;;;;;45.97;41.33;;;18.70;99.90;;;;;;4940006;29;20543;-83
2023/05/23 01:03:17;;;;;;;43.17;39.13;;;18.60;99.90;;;;;;4941485;29;20471;-84
2023/05/23 01:05:46;;;;;;;46.77;41.93;;;18.70;1.00;;;;;;4940717;29;20452;-84
2023/05/23 01:08:14;;;;;;;48.60;43.70;;;18.60;99.90;;;;;;4942457;28;20480;-84
2023/05/23 01:10:43;;;;;;;49.57;44.57;;;18.70;1.00;;;;;;4943284;29;20481;-84
2023/05/23 01:13:20;;;;;;;48.87;43.87;;;18.70;99.90;;;;;;4943237;29;20874;-84
2023/05/23 01:15:55;;;;;;;48.03;43.33;;;18.60;1.00;;;;;;4942267;29;20459;-84
2023/05/23 01:18:29;;;;;;;50.10;44.60;;;18.60;1.00;;;;;;4934774;28;20846;-83
2023/05/23 01:21:03;;;;;;;50.23;45.03;;;18.60;99.90;;;;;;4937755;29;20523;-85
2023/05/23 01:23:58;;;;;;;53.27;45.97;;;18.50;1.00;;;;;;4938079;29;20965;-84
2023/05/23 01:26:34;;;;;;;49.03;44.03;;;18.50;99.90;;;;;;4940885;29;20827;-83
2023/05/23 01:29:09;;;;;;;50.87;44.93;;;18.50;1.00;;;;;;4939560;29;21024;-84
2023/05/23 01:31:42;;;;;;;53.77;45.43;;;18.50;99.90;;;;;;4936905;29;20559;-83
2023/05/23 01:34:12;;;;;;;50.33;44.37;;;18.50;1.00;;;;;;4939469;29;21029;-84
2023/05/23 01:36:42;;;;;;;51.30;46.00;;;18.50;1.00;;;;;;4942746;29;20456;-83
2023/05/23 01:39:11;;;;;;;55.47;47.87;;;18.50;99.90;;;;;;4939011;29;20564;-84
2023/05/23 01:41:39;;;;;;;56.07;47.43;;;18.50;1.00;;;;;;4938015;28;20445;-83
2023/05/23 01:44:09;;;;;;;52.60;47.13;;;18.50;99.90;;;;;;4939958;29;20459;-84
2023/05/23 01:46:39;;;;;;;52.27;46.67;;;18.40;99.90;;;;;;4935955;29;20459;-82
2023/05/23 01:49:11;;;;;;;50.93;45.13;;;18.50;99.90;;;;;;4938237;29;20483;-83
2023/05/23 01:51:40;;;;;;;51.57;45.53;;;18.50;99.90;;;;;;4942741;29;20590;-83
2023/05/23 01:54:08;;;;;;;54.13;47.87;;;18.40;1.00;;;;;;4944703;29;20476;-82
2023/05/23 01:56:37;;;;;;;53.60;46.83;;;18.40;1.00;;;;;;4940973;29;20475;-83
2023/05/23 01:59:05;;;;;;;54.30;48.17;;;18.40;99.90;;;;;;4937556;29;20575;-83
2023/05/23 02:01:35;;;;;;;53.80;47.50;;;18.50;1.00;;;;;;4939917;29;20554;-83
2023/05/23 02:04:04;;;;;;;56.73;49.20;;;18.50;1.00;;;;;;4938537;29;20819;-82
2023/05/23 02:06:33;;;;;;;60.50;50.10;;;18.40;5.10;;;;;;4941882;29;20460;-83
2023/05/23 02:09:01;;;;;;;60.10;51.20;;;18.40;99.90;;;;;;4940277;29;21044;-82
2023/05/23 02:11:29;;;;;;;62.93;51.70;;;18.40;99.90;;;;;;4939016;29;20488;-82
2023/05/23 02:13:57;;;;;;;59.73;51.73;;;18.40;99.90;;;;;;4938695;29;20837;-83
2023/05/23 02:16:25;;;;;;;58.33;52.00;;;18.40;99.40;;;;;;4937063;29;20461;-83
2023/05/23 02:18:55;;;;;;;59.00;52.40;;;18.50;92.60;;;;;;4939103;29;20480;-83
2023/05/23 02:21:24;;;;;;;59.87;53.37;;;18.50;1.00;;;;;;4939041;29;20486;-83
2023/05/23 02:23:52;;;;;;;60.83;54.23;;;18.50;1.00;;;;;;4939218;29;20499;-83
2023/05/23 02:26:20;;;;;;;60.73;53.63;;;18.50;99.90;;;;;;4938037;29;20977;-83
2023/05/23 02:28:48;;;;;;;61.17;54.57;;;18.40;1.00;;;;;;4936109;29;20480;-82
2023/05/23 02:31:16;;;;;;;62.20;53.27;;;18.40;99.90;;;;;;4943754;28;20748;-84
2023/05/23 02:33:45;;;;;;;58.73;52.40;;;18.40;35.00;;;;;;4943487;29;20844;-83
2023/05/23 02:36:14;;;;;;;58.70;52.27;;;18.40;37.70;;;;;;4943844;29;20451;-82
2023/05/23 02:38:42;;;;;;;58.03;51.73;;;18.40;1.00;;;;;;4943595;29;20493;-83
2023/05/23 02:41:10;;;;;;;59.17;51.50;;;18.40;1.00;;;;;;4943363;29;20485;-84
2023/05/23 02:43:39;;;;;;;67.00;54.50;;;18.40;99.90;;;;;;4941398;29;20564;-83
2023/05/23 02:46:07;;;;;;;63.80;56.37;;;18.40;60.20;;;;;;4943016;29;20464;-81
2023/05/23 02:48:36;;;;;;;61.27;53.77;;;18.50;1.00;;;;;;4942334;28;20491;-85
2023/05/23 02:51:04;;;;;;;60.50;53.60;;;18.40;48.30;;;;;;4944072;29;20462;-84
2023/05/23 02:53:33;;;;;;;62.43;53.73;;;18.40;99.90;;;;;;4944286;29;20464;-83
2023/05/23 02:56:01;;;;;;;64.07;52.60;;;18.40;99.90;;;;;;4937366;29;20456;-83
2023/05/23 02:58:30;;;;;;;63.10;52.90;;;18.40;99.90;;;;;;4940768;29;20480;-84
2023/05/23 03:00:58;;;;;;;63.70;54.30;;;18.40;99.90;;;;;;4942415;29;20457;-83
2023/05/23 03:03:27;;;;;;;60.57;53.07;;;18.40;99.90;;;;;;4947602;28;20463;-84
2023/05/23 03:05:56;;;;;;;65.53;55.90;;;18.40;99.90;;;;;;4943149;28;20459;-83
2023/05/23 03:08:24;;;;;;;62.90;55.73;;;18.40;97.80;;;;;;4943816;29;20511;-83
2023/05/23 03:10:54;;;;;;;59.23;52.43;;;18.40;40.50;;;;;;4942819;29;20464;-83
2023/05/23 03:13:22;;;;;;;58.70;52.40;;;18.40;52.80;;;;;;4943065;29;20483;-83
2023/05/23 03:15:50;;;;;;;62.90;52.37;;;18.50;1.00;;;;;;4938145;29;20448;-82
2023/05/23 03:18:18;;;;;;;58.10;51.00;;;18.50;1.00;;;;;;4942275;29;20488;-83
2023/05/23 03:20:46;;;;;;;63.70;55.40;;;18.50;1.00;;;;;;4942479;29;20464;-84
2023/05/23 03:23:14;;;;;;;59.50;53.00;;;18.50;1.00;;;;;;4941699;29;20452;-84
2023/05/23 03:25:43;;;;;;;62.57;52.87;;;18.50;99.90;;;;;;4940151;29;20447;-83
2023/05/23 03:28:12;;;;;;;60.40;54.10;;;18.50;99.90;;;;;;4938689;29;20486;-82
2023/05/23 03:30:41;;;;;;;60.30;53.23;;;18.50;99.90;;;;;;4940860;29;20456;-84
2023/05/23 03:33:10;;;;;;;60.57;53.13;;;18.50;99.90;;;;;;4942618;29;20487;-84
2023/05/23 03:35:38;;;;;;;58.50;52.10;;;18.50;99.90;;;;;;4942371;29;20468;-84
2023/05/23 03:38:06;;;;;;;57.90;51.83;;;18.50;94.10;;;;;;4943364;29;20908;-83
2023/05/23 03:40:34;;;;;;;59.50;52.60;;;18.50;99.90;;;;;;4941004;29;20468;-84
2023/05/23 03:43:03;;;;;;;57.67;51.37;;;18.50;1.00;;;;;;4939821;29;20456;-84
2023/05/23 03:45:33;;;;;;;59.00;52.60;;;18.50;99.90;;;;;;4939811;29;20460;-84
2023/05/23 03:48:02;;;;;;;58.90;51.50;;;18.40;8.40;;;;;;4936336;29;20471;-83
2023/05/23 03:50:30;;;;;;;58.47;52.33;;;18.40;99.90;;;;;;4939514;29;20912;-83
2023/05/23 03:52:58;;;;;;;58.07;51.77;;;18.40;1.00;;;;;;4944580;29;20479;-84
2023/05/23 03:55:27;;;;;;;58.47;52.13;;;18.50;1.00;;;;;;4938110;29;20801;-83
2023/05/23 03:57:55;;;;;;;55.83;50.00;;;18.50;1.00;;;;;;4945041;28;20472;-83
2023/05/23 04:00:23;;;;;;;57.03;51.07;;;18.50;1.00;;;;;;4936863;29;20468;-83
2023/05/23 04:02:52;;;;;;;55.77;50.27;;;18.50;1.00;;;;;;4937137;29;20580;-84
2023/05/23 04:05:21;;;;;;;56.87;51.10;;;18.50;99.90;;;;;;4943912;29;21584;-83
2023/05/23 04:07:50;;;;;;;57.73;51.57;;;18.50;99.90;;;;;;4940743;29;20460;-82
2023/05/23 04:10:18;;;;;;;56.83;51.03;;;18.50;1.00;;;;;;4938903;29;20597;-83
2023/05/23 04:12:46;;;;;;;55.30;49.50;;;18.50;1.00;;;;;;4938802;29;20499;-83
2023/05/23 04:15:16;;;;;;;56.27;50.43;;;18.50;1.00;;;;;;4942668;29;20554;-84
2023/05/23 04:17:44;;;;;;;57.93;51.93;;;18.50;1.00;;;;;;4941359;29;20475;-83
2023/05/23 04:20:14;;;;;;;60.10;52.17;;;18.40;1.00;;;;;;4943720;29;20799;-82
2023/05/23 04:22:42;;;;;;;56.57;50.77;;;18.50;1.00;;;;;;4940357;28;20448;-83
2023/05/23 04:25:11;;;;;;;57.50;51.47;;;18.40;1.00;;;;;;4942956;28;20930;-83
2023/05/23 04:27:39;;;;;;;55.23;49.73;;;18.50;1.00;;;;;;4946036;28;20458;-83
2023/05/23 04:30:09;;;;;;;54.10;48.60;;;18.50;99.90;;;;;;4942301;29;20989;-81
2023/05/23 04:32:37;;;;;;;56.63;50.83;;;18.50;99.90;;;;;;4943829;29;20530;-84
2023/05/23 04:35:07;;;;;;;57.57;51.47;;;18.40;99.90;;;;;;4939705;29;20459;-82
2023/05/23 04:37:38;;;;;;;56.33;51.00;;;18.50;99.90;;;;;;4944120;29;20515;-83
2023/05/23 04:40:07;;;;;;;56.60;50.97;;;18.50;99.90;;;;;;4938090;29;20698;-82
2023/05/23 04:42:36;;;;;;;56.07;50.57;;;18.50;99.90;;;;;;4944225;29;20531;-83
2023/05/23 04:45:08;;;;;;;57.13;51.33;;;18.40;99.90;;;;;;4941744;28;20547;-83
2023/05/23 04:47:36;;;;;;;57.07;51.63;;;18.40;99.90;;;;;;4943409;29;20461;-83
2023/05/23 04:50:05;;;;;;;55.83;50.47;;;18.40;19.70;;;;;;4940383;29;20852;-80
2023/05/23 04:52:33;;;;;;;57.97;52.60;;;18.40;99.90;;;;;;4941031;28;20475;-83
2023/05/23 04:55:03;;;;;;;56.50;50.70;;;18.40;1.00;;;;;;4944525;29;20897;-83
2023/05/23 04:57:31;;;;;;;54.70;49.23;;;18.40;99.90;;;;;;4940324;29;20456;-81
2023/05/23 04:59:59;;;;;;;57.43;48.33;;;18.40;99.90;;;;;;4945326;29;20488;-82
2023/05/23 05:02:32;;;;;;;54.00;48.90;;;18.40;1.00;;;;;;4945989;29;20460;-81
2023/05/23 05:05:00;;;;;;;57.70;51.77;;;18.40;99.90;;;;;;4944510;29;20464;-82
2023/05/23 05:07:29;;;;;;;57.47;51.83;;;18.50;1.00;;;;;;4937691;29;21172;-82
2023/05/23 05:09:57;;;;;;;58.73;53.00;;;18.50;99.90;;;;;;4946043;28;20507;-82
2023/05/23 05:12:29;;;;;;;56.30;50.90;;;18.50;65.10;;;;;;4941644;28;20485;-83
2023/05/23 05:14:57;;;;;;;55.60;50.20;;;18.50;99.90;;;;;;4941911;29;20483;-84
2023/05/23 05:17:25;;;;;;;56.27;50.47;;;18.50;1.00;;;;;;4942157;29;20461;-81
2023/05/23 05:19:54;;;;;;;58.53;52.73;;;18.50;45.60;;;;;;4939841;29;20542;-81
2023/05/23 05:22:22;;;;;;;57.70;51.93;;;18.50;1.00;;;;;;4943582;29;20468;-81
2023/05/23 05:24:50;;;;;;;56.13;50.73;;;18.50;99.90;;;;;;4941946;29;20458;-81
2023/05/23 05:27:18;;;;;;;57.63;51.97;;;18.50;99.90;;;;;;4940702;28;20471;-82
2023/05/23 05:29:50;;;;;;;56.90;51.70;;;18.50;99.90;;;;;;4942081;28;20550;-83
2023/05/23 05:32:18;;;;;;;59.33;53.53;;;18.50;92.00;;;;;;4942951;29;20448;-83
2023/05/23 05:34:48;;;;;;;58.70;53.30;;;18.50;1.00;;;;;;4944661;29;20460;-84
2023/05/23 05:37:16;;;;;;;57.80;52.60;;;18.50;39.70;;;;;;4947435;28;20456;-82
2023/05/23 05:39:44;;;;;;;57.07;51.60;;;18.50;36.90;;;;;;4946663;29;20482;-82
2023/05/23 05:42:13;;;;;;;58.50;52.70;;;18.50;99.90;;;;;;4941835;29;20492;-81
2023/05/23 05:44:41;;;;;;;55.77;50.70;;;18.50;41.10;;;;;;4946871;28;20467;-81
2023/05/23 05:47:12;;;;;;;56.60;51.40;;;18.50;99.90;;;;;;4942905;29;20460;-81
2023/05/23 05:49:40;;;;;;;57.63;51.80;;;18.50;99.90;;;;;;4941301;29;20488;-82
2023/05/23 05:52:09;;;;;;;59.07;53.07;;;18.40;1.00;;;;;;4956212;28;20471;-81
2023/05/23 05:54:37;;;;;;;59.13;53.53;;;18.40;99.90;;;;;;4943862;29;20484;-81
2023/05/23 05:57:06;;;;;;;58.97;53.13;;;18.40;99.90;;;;;;4939746;28;20961;-81
2023/05/23 05:59:34;;;;;;;55.53;50.27;;;18.40;1.00;;;;;;4940108;28;21246;-81
2023/05/23 06:02:02;;;;;;;57.47;51.77;;;18.50;1.00;;;;;;4942323;29;20937;-82
2023/05/23 06:04:32;;;;;;;57.73;52.03;;;18.50;99.90;;;;;;4941036;28;20897;-83
2023/05/23 06:07:00;;;;;;;57.00;51.70;;;18.40;99.90;;;;;;4943323;29;21333;-81
2023/05/23 06:09:29;;;;;;;57.17;51.77;;;18.50;1.00;;;;;;4936902;29;20475;-80
2023/05/23 06:11:57;;;;;;;58.57;52.87;;;18.50;99.90;;;;;;4929948;29;20842;-84
2023/05/23 06:14:25;;;;;;;58.17;52.77;;;18.50;99.90;;;;;;4939636;29;20950;-83
2023/05/23 06:16:54;;;;;;;57.60;52.10;;;18.50;1.00;;;;;;4938280;29;20531;-81
2023/05/23 06:19:23;;;;;;;58.63;52.73;;;18.50;1.00;;;;;;4940017;28;20491;-81
2023/05/23 06:21:53;;;;;;;55.83;50.20;;;18.50;99.90;;;;;;4943993;29;21094;-82
2023/05/23 06:24:21;;;;;;;56.40;50.40;;;18.50;1.00;;;;;;4940613;29;20543;-82
2023/05/23 06:26:49;;;;;;;58.23;52.80;;;18.50;1.00;;;;;;4936570;29;20913;-83
2023/05/23 06:29:18;;;;;;;59.30;53.33;;;18.40;99.90;;;;;;4931832;29;20598;-82
2023/05/23 06:31:46;;;;;;;54.57;49.70;;;18.50;1.00;;;;;;4940112;28;20464;-82
2023/05/23 06:34:14;;;;;;;55.70;50.53;;;18.50;15.50;;;;;;4949951;28;20563;-82
2023/05/23 06:36:42;;;;;;;53.97;48.77;;;18.50;1.00;;;;;;4939209;29;20474;-83
2023/05/23 06:39:12;;;;;;;56.10;50.80;;;18.50;99.90;;;;;;4940524;29;20476;-84
2023/05/23 06:41:40;;;;;;;55.30;50.17;;;18.50;5.40;;;;;;4940131;29;21584;-83
2023/05/23 06:44:09;;;;;;;51.93;47.33;;;18.50;1.00;;;;;;4937375;29;20651;-83
2023/05/23 06:46:37;;;;;;;53.70;48.70;;;18.50;99.90;;;;;;4942094;28;20464;-83
2023/05/23 06:49:07;;;;;;;50.27;45.50;;;18.50;81.60;;;;;;4936550;29;20479;-82
2023/05/23 06:51:42;;;;;;;51.23;46.57;;;18.50;99.90;;;;;;4940663;29;20451;-83
2023/05/23 06:54:12;;;;;;;51.77;47.17;;;18.50;99.90;;;;;;4940438;29;20492;-83
2023/05/23 06:56:40;;;;;;;48.13;43.83;;;18.60;99.90;;;;;;4933045;28;20486;-84
2023/05/23 06:59:08;;;;;;;47.47;43.67;;;18.60;99.90;;;;;;4933941;29;20558;-83
2023/05/23 07:01:36;;;;;;;53.20;48.00;;;18.60;99.90;;;;;;4931019;28;20456;-83
2023/05/23 07:04:05;;;;;;;49.10;44.90;;;18.60;39.20;;;;;;4936346;29;20452;-83
2023/05/23 07:06:34;;;;;;;52.57;47.57;;;18.50;1.00;;;;;;4937856;29;20464;-83
2023/05/23 07:09:03;;;;;;;49.60;45.37;;;18.50;1.00;;;;;;4936034;29;20483;-83
2023/05/23 07:11:34;;;;;;;48.27;44.27;;;18.50;1.00;;;;;;4928483;28;20464;-84
2023/05/23 07:14:02;;;;;;;48.47;44.23;;;18.50;1.00;;;;;;4937762;29;20476;-83
2023/05/23 07:16:31;;;;;;;47.17;43.30;;;18.50;99.90;;;;;;4939168;28;21737;-82
2023/05/23 07:19:01;;;;;;;49.90;45.67;;;18.50;99.90;;;;;;4940627;29;21514;-82
2023/05/23 07:21:30;;;;;;;48.90;44.40;;;18.50;1.00;;;;;;4942009;29;20574;-83
2023/05/23 07:23:58;;;;;;;48.50;44.10;;;18.50;39.80;;;;;;4939606;29;21048;-82
2023/05/23 07:26:27;;;;;;;46.53;42.73;;;18.40;1.00;;;;;;4939447;28;20457;-83
2023/05/23 07:28:57;;;;;;;46.10;42.00;;;18.30;1.00;;;;;;4942821;29;20494;-83
2023/05/23 07:31:25;;;;;;;46.90;42.97;;;18.40;1.00;;;;;;4943495;28;20473;-83
2023/05/23 07:33:53;;;;;;;46.90;42.77;;;18.30;1.00;;;;;;4944209;29;20502;-83
2023/05/23 07:36:24;;;;;;;47.63;43.70;;;18.30;1.00;;;;;;4941960;28;20479;-82
2023/05/23 07:38:52;;;;;;;45.90;42.27;;;18.30;1.00;;;;;;4937458;29;20957;-83
2023/05/23 07:41:20;;;;;;;47.97;43.67;;;18.30;1.00;;;;;;4938981;29;20456;-82
2023/05/23 07:43:49;;;;;;;48.43;44.50;;;18.30;1.00;;;;;;4944468;29;20483;-83
2023/05/23 07:46:18;;;;;;;46.33;42.60;;;18.30;1.00;;;;;;4941584;29;20464;-83
2023/05/23 07:48:47;;;;;;;47.97;43.97;;;18.20;99.90;;;;;;4938228;29;20515;-83
2023/05/23 07:51:20;;;;;;;47.50;43.30;;;18.20;99.90;;;;;;4944386;29;20495;-83
2023/05/23 07:53:48;;;;;;;49.00;44.60;;;18.20;1.00;;;;;;4939998;29;20849;-82
2023/05/23 07:56:17;;;;;;;45.70;41.90;;;18.30;99.90;;;;;;4944553;29;20575;-82
2023/05/23 07:58:45;;;;;;;45.60;41.90;;;18.20;99.90;;;;;;4945497;28;20494;-82
2023/05/23 08:01:13;;;;;;;45.37;41.57;;;18.30;99.90;;;;;;4943342;29;20454;-82
2023/05/23 08:03:43;;;;;;;45.60;41.70;;;18.20;99.90;;;;;;4943838;29;20464;-83
2023/05/23 08:06:11;;;;;;;47.00;42.87;;;18.30;99.90;;;;;;4938611;28;20966;-82
2023/05/23 08:08:40;;;;;;;45.97;42.07;;;18.20;99.90;;;;;;4944483;29;21334;-82
2023/05/23 08:11:08;;;;;;;48.07;43.67;;;18.30;99.90;;;;;;4943301;29;20463;-83
2023/05/23 08:13:36;;;;;;;46.23;42.00;;;18.30;99.90;;;;;;4937827;29;20503;-82
2023/05/23 08:16:04;;;;;;;48.30;43.90;;;18.30;99.90;;;;;;4936957;29;20491;-82
2023/05/23 08:18:32;;;;;;;44.47;40.77;;;18.30;99.90;;;;;;4942466;29;20479;-82
2023/05/23 08:21:03;;;;;;;45.10;41.50;;;18.40;99.90;;;;;;4941393;29;20463;-83
2023/05/23 08:23:31;;;;;;;46.33;42.17;;;18.40;1.00;;;;;;4945334;29;20460;-82
2023/05/23 08:25:59;;;;;;;47.60;42.97;;;18.40;1.00;;;;;;4944907;28;20456;-83
2023/05/23 08:28:27;;;;;;;43.50;39.83;;;18.40;1.00;;;;;;4943439;28;20512;-82
2023/05/23 08:30:57;;;;;;;43.97;40.30;;;18.40;1.00;;;;;;4939522;29;21083;-83
2023/05/23 08:33:25;;;;;;;42.23;38.87;;;18.40;1.00;;;;;;4938327;29;21054;-83
2023/05/23 08:35:53;;;;;;;42.07;38.57;;;18.30;1.00;;;;;;4942896;29;20476;-82
2023/05/23 08:38:23;;;;;;;41.30;37.87;;;18.30;1.00;;;;;;4934966;29;20595;-83
2023/05/23 08:40:52;;;;;;;43.00;38.67;;;18.30;1.00;;;;;;4946407;28;20471;-83
2023/05/23 08:43:20;;;;;;;40.00;36.90;;;18.30;1.00;;;;;;4946218;29;20448;-82
2023/05/23 08:45:51;;;;;;;41.17;37.90;;;18.30;99.90;;;;;;4946451;29;20448;-82
2023/05/23 08:48:20;;;;;;;40.70;37.40;;;18.30;99.90;;;;;;4932386;28;20550;-84
2023/05/23 08:50:50;;;;;;;40.80;37.50;;;18.30;99.90;;;;;;4947496;29;20540;-81
2023/05/23 08:53:23;;;;;;;40.27;37.10;;;18.30;99.90;;;;;;4946176;28;20549;-82
2023/05/23 08:55:53;;;;;;;38.73;35.73;;;18.20;99.90;;;;;;4947141;29;20476;-82
2023/05/23 08:58:23;;;;;;;38.70;35.43;;;18.20;1.00;;;;;;4947059;29;20473;-82
2023/05/23 09:00:54;;;;;;;38.70;35.70;;;18.20;99.90;;;;;;4948576;28;20957;-82
2023/05/23 09:03:22;;;;;;;39.73;36.43;;;18.30;99.90;;;;;;4946703;29;20455;-82
2023/05/23 09:05:51;;;;;;;40.50;37.53;;;18.30;99.90;;;;;;4944724;29;20495;-82
2023/05/23 09:08:19;;;;;;;40.50;37.37;;;18.30;99.90;;;;;;4946859;29;20479;-82
2023/05/23 09:10:49;;;;;;;38.07;35.37;;;18.30;99.90;;;;;;4945800;29;20514;-83
2023/05/23 09:13:19;;;;;;;36.43;33.83;;;18.30;99.90;;;;;;4946168;29;20515;-83
2023/05/23 09:15:58;;;;;;;40.20;37.00;;;18.30;99.90;;;;;;4943139;29;21152;-83
2023/05/23 09:18:27;;;;;;;38.87;35.87;;;18.40;99.90;;;;;;4944532;29;20480;-83
2023/05/23 09:20:55;;;;;;;38.07;35.20;;;18.40;99.90;;;;;;4944770;29;20466;-83
2023/05/23 09:23:24;;;;;;;37.60;34.73;;;18.40;99.90;;;;;;4938081;29;20488;-83
2023/05/23 09:25:53;;;;;;;35.97;33.47;;;18.50;99.90;;;;;;4944088;29;20453;-82
2023/05/23 09:28:22;;;;;;;37.10;34.40;;;18.60;99.90;;;;;;4943476;29;20494;-83
2023/05/23 09:30:58;;;;;;;36.93;34.20;;;18.60;99.90;;;;;;4943888;29;21041;-82
2023/05/23 09:33:35;;;;;;;36.10;33.60;;;18.60;99.90;;;;;;4942760;29;20566;-82
2023/05/23 09:36:05;;;;;;;35.67;33.07;;;18.60;99.90;;;;;;4932446;29;20550;-82
2023/05/23 09:38:37;;;;;;;37.20;34.13;;;18.60;99.90;;;;;;4940743;28;20479;-82
2023/05/23 09:41:10;;;;;;;33.30;31.00;;;18.60;99.90;;;;;;4952933;28;21040;-82
2023/05/23 09:43:39;;;;;;;31.70;29.60;;;18.60;99.90;;;;;;4940002;29;20468;-82
2023/05/23 09:46:08;;;;;;;32.37;30.17;;;18.60;99.90;;;;;;4940117;29;20448;-83
2023/05/23 09:48:37;;;;;;;32.37;30.17;;;18.60;99.90;;;;;;4943019;29;20495;-83
2023/05/23 09:51:05;;;;;;;32.83;30.57;;;18.70;90.30;;;;;;4938319;29;20464;-82
2023/05/23 09:53:34;;;;;;;32.00;29.90;;;18.80;33.80;;;;;;4943486;29;20502;-83
2023/05/23 09:56:03;;;;;;;31.20;29.10;;;18.80;1.00;;;;;;4941013;29;20504;-83
2023/05/23 09:58:34;;;;;;;31.50;29.10;;;18.90;1.00;;;;;;4938367;29;20668;-82
2023/05/23 10:01:03;;;;;;;30.83;28.83;;;18.90;1.00;;;;;;4939492;29;20466;-82
2023/05/23 10:03:35;;;;;;;31.00;29.00;;;19.00;1.00;;;;;;4939625;28;20614;-82
2023/05/23 10:06:08;;;;;;;31.40;29.17;;;19.10;1.00;;;;;;4935657;29;20559;-83
2023/05/23 10:08:39;;;;;;;30.90;29.10;;;19.10;1.00;;;;;;4940107;29;20489;-82
2023/05/23 10:11:50;;;;;;;31.23;29.23;;;19.10;1.00;;;;;;4937541;29;20471;-82
2023/05/23 10:14:20;;;;;;;32.37;29.60;;;19.10;1.00;;;;;;4940526;29;20980;-82
2023/05/23 10:16:56;;;;;;;29.30;27.57;;;19.10;1.00;;;;;;4940558;29;20966;-82
2023/05/23 10:19:27;;;;;;;27.27;25.77;;;19.10;1.00;;;;;;4926536;29;20488;-83
2023/05/23 10:22:02;;;;;;;27.67;25.87;;;19.00;1.00;;;;;;4937963;29;20476;-83
2023/05/23 10:24:30;;;;;;;29.37;27.67;;;18.90;1.00;;;;;;4941053;28;20451;-83
2023/05/23 10:26:59;;;;;;;27.80;26.20;;;18.80;1.00;;;;;;4941097;28;20452;-83
2023/05/23 10:29:29;;;;;;;27.47;25.87;;;18.90;1.00;;;;;;4943658;29;21818;-83
2023/05/23 10:31:58;;;;;;;29.23;27.43;;;19.10;1.00;;;;;;4938265;29;20452;-80
2023/05/23 10:34:32;;;;;;;27.93;26.03;;;19.20;1.00;;;;;;4935878;29;21209;-83
2023/05/23 10:37:03;;;;;;;29.30;26.90;;;19.20;1.00;;;;;;4937497;29;21108;-83
2023/05/23 10:39:43;;;;;;;28.63;26.90;;;19.20;1.00;;;;;;4935413;29;20491;-83
2023/05/23 10:42:17;;;;;;;27.27;25.50;;;19.30;1.00;;;;;;4939230;29;20458;-83
2023/05/23 10:44:46;;;;;;;27.03;25.43;;;19.30;1.00;;;;;;4932274;29;20456;-82
2023/05/23 10:47:27;;;;;;;26.77;25.20;;;19.30;1.00;;;;;;4942478;29;21203;-83
2023/05/23 10:49:55;;;;;;;26.20;24.50;;;19.40;1.00;;;;;;4941154;29;21093;-82
2023/05/23 10:52:26;;;;;;;27.00;25.50;;;19.50;1.00;;;;;;4945128;29;20518;-83
2023/05/23 10:54:55;;;;;;;26.93;25.13;;;19.60;1.00;;;;;;4945355;29;20585;-83
2023/05/23 10:57:27;;;;;;;25.63;24.13;;;19.70;1.00;;;;;;4938137;29;21008;-82
2023/05/23 10:59:57;;;;;;;26.47;24.97;;;19.70;1.00;;;;;;4944149;29;20482;-82
2023/05/23 11:02:27;;;;;;;24.93;23.63;;;19.70;99.90;;;;;;4943839;29;20986;-83
2023/05/23 11:05:21;;;;;;;25.07;23.70;;;19.70;99.90;;;;;;4938070;29;21017;-82
2023/05/23 11:08:08;;;;;;;27.87;26.17;;;19.80;99.90;;;;;;4945123;29;20467;-82
2023/05/23 11:10:52;;;;;;;27.50;25.80;;;19.80;99.90;;;;;;4944718;29;20466;-82
2023/05/23 11:13:21;;;;;;;28.77;26.70;;;19.80;99.90;;;;;;4940627;29;20495;-83
2023/05/23 11:15:51;;;;;;;28.80;26.93;;;19.80;99.90;;;;;;4944387;29;20472;-83
2023/05/23 11:18:21;;;;;;;28.83;26.63;;;19.80;1.00;;;;;;4943232;29;20491;-84
2023/05/23 11:20:52;;;;;;;28.77;26.77;;;19.80;99.90;;;;;;4945948;29;21471;-82
2023/05/23 11:23:22;;;;;;;28.20;26.60;;;19.90;99.90;;;;;;4937312;28;20463;-82
2023/05/23 11:25:52;;;;;;;27.93;26.20;;;19.80;99.90;;;;;;4945388;29;20456;-83
2023/05/23 11:28:20;;;;;;;27.20;25.80;;;19.80;99.90;;;;;;4943229;28;21032;-83
2023/05/23 11:30:51;;;;;;;28.03;26.40;;;19.80;99.90;;;;;;4935133;29;20456;-83
2023/05/23 11:33:20;;;;;;;27.93;26.30;;;19.70;99.90;;;;;;4953171;28;20889;-82
2023/05/23 11:35:50;;;;;;;28.97;27.20;;;19.70;99.90;;;;;;4937209;29;20467;-81
2023/05/23 11:38:19;;;;;;;28.30;26.70;;;19.70;99.90;;;;;;4942629;29;20479;-82
2023/05/23 11:40:48;;;;;;;28.23;26.40;;;19.70;99.90;;;;;;4943377;29;20465;-84
2023/05/23 11:43:18;;;;;;;27.27;25.77;;;19.70;99.90;;;;;;4942541;28;20955;-84
2023/05/23 11:45:46;;;;;;;27.27;25.67;;;19.60;99.90;;;;;;4945513;28;20444;-85
2023/05/23 11:48:17;;;;;;;26.60;25.00;;;19.70;99.90;;;;;;4948588;29;20502;-86
2023/05/23 11:50:47;;;;;;;27.33;25.50;;;19.90;99.90;;;;;;4948200;29;20460;-86
2023/05/23 11:53:19;;;;;;;28.93;27.00;;;20.00;99.90;;;;;;4940474;29;20474;-86
2023/05/23 11:55:52;;;;;;;26.30;24.80;;;20.00;99.90;;;;;;4948813;29;21029;-87
2023/05/23 11:58:21;;;;;;;27.20;25.70;;;20.00;99.90;;;;;;4948540;29;20508;-87
2023/05/23 12:00:50;;;;;;;26.80;25.30;;;19.90;99.90;;;;;;4944367;29;20456;-86
2023/05/23 12:03:26;;;;;;;27.10;25.60;;;20.00;99.90;;;;;;4944950;28;20479;-87
2023/05/23 12:05:55;;;;;;;24.70;23.33;;;20.10;99.90;;;;;;4947101;29;20475;-87
2023/05/23 12:08:24;;;;;;;25.53;24.10;;;20.10;99.90;;;;;;4948862;29;20474;-86
2023/05/23 12:10:53;;;;;;;25.67;24.30;;;20.10;99.90;;;;;;4950393;28;20448;-86
2023/05/23 12:13:25;;;;;;;26.07;24.67;;;20.20;99.90;;;;;;4947131;29;20463;-87
2023/05/23 12:15:57;;;;;;;26.43;24.83;;;20.10;99.90;;;;;;4944686;29;20515;-87
2023/05/23 12:18:29;;;;;;;26.00;24.50;;;19.90;99.90;;;;;;4948697;29;20570;-86
2023/05/23 12:21:00;;;;;;;24.40;23.20;;;19.90;99.90;;;;;;4946990;29;20452;-86
2023/05/23 12:23:28;;;;;;;24.57;23.20;;;20.00;99.90;;;;;;4944108;29;22053;-86
2023/05/23 12:26:00;;;;;;;23.47;22.27;;;20.00;99.90;;;;;;4948626;29;20452;-86
2023/05/23 12:28:36;;;;;;;22.90;21.80;;;20.00;99.90;;;;;;4945781;29;21041;-86
2023/05/23 12:31:12;;;;;;;23.30;22.20;;;19.90;99.90;;;;;;4947282;29;20460;-86
2023/05/23 12:33:43;;;;;;;23.23;22.20;;;19.90;99.90;;;;;;4946694;29;21004;-86
2023/05/23 12:36:11;;;;;;;32.50;29.33;;;19.90;99.90;;;;;;4948288;29;20539;-87
2023/05/23 12:38:44;;;;;;;24.80;23.40;;;19.90;99.90;;;;;;4945759;29;20479;-86
2023/05/23 12:41:15;;;;;;;22.47;21.27;;;20.00;99.90;;;;;;4942883;29;20488;-86
2023/05/23 12:43:50;;;;;;;22.40;21.40;;;20.00;99.90;;;;;;4930623;28;20466;-85